Time;durP1;ratioP1;P1;durP2;ratioP2;P2;SDS_P1;SDS_P2;PMS_P1;PMS_P2;Temp;Humidity;BMP_temperature;BMP_pressure;BME280_temperature;BME280_humidity;BME280_pressure;Samples;Min_cycle;Max_cycle;Signal;HPM_P1;HPM_P2
2022/07/02 00:00:44;;;;;;;9.63;3.72;;;;;;;12.53;95.29;102132.94;5071756;28;20399;-70
2022/07/02 00:03:10;;;;;;;9.65;4.20;;;;;;;12.44;95.31;102123.44;5065555;28;20028;-70
2022/07/02 00:05:47;;;;;;;12.25;4.82;;;;;;;12.48;94.69;102132.09;5072444;28;20503;-71
2022/07/02 00:08:13;;;;;;;8.50;4.18;;;;;;;12.39;94.94;102139.19;5072213;28;20036;-71
2022/07/02 00:10:38;;;;;;;7.70;4.53;;;;;;;12.39;95.97;102139.19;5059420;28;20099;-70
2022/07/02 00:13:06;;;;;;;18.05;4.80;;;;;;;12.37;95.56;102135.72;5062152;28;20111;-70
2022/07/02 00:15:33;;;;;;;9.70;4.72;;;;;;;12.31;95.44;102127.06;5073032;28;20063;-70
2022/07/02 00:17:58;;;;;;;14.38;4.97;;;;;;;12.31;96.08;102129.69;5071913;28;20031;-70
2022/07/02 00:20:24;;;;;;;13.73;4.70;;;;;;;12.29;95.62;102129.66;5072309;28;20115;-70
2022/07/02 00:22:50;;;;;;;7.20;4.05;;;;;;;12.31;96.72;102134.91;5071403;28;20021;-70
2022/07/02 00:25:16;;;;;;;11.70;4.68;;;;;;;12.24;96.08;102123.63;5073240;28;20115;-70
2022/07/02 00:27:42;;;;;;;8.07;4.40;;;;;;;12.21;96.28;102118.44;5069480;28;20551;-70
2022/07/02 00:30:08;;;;;;;7.32;3.83;;;;;;;12.20;96.51;102119.34;5070679;28;20115;-71
2022/07/02 00:32:35;;;;;;;7.85;4.15;;;;;;;12.13;96.22;102133.31;5060192;28;20037;-70
2022/07/02 00:35:10;;;;;;;9.02;4.10;;;;;;;12.10;96.16;102123.78;5072040;28;20074;-70
2022/07/02 00:37:38;;;;;;;7.78;4.50;;;;;;;12.08;96.63;102128.16;5071343;28;20039;-70
2022/07/02 00:40:06;;;;;;;8.15;4.60;;;;;;;12.02;96.81;102140.41;5071816;28;20035;-70
2022/07/02 00:42:31;;;;;;;7.15;4.63;;;;;;;11.99;97.06;102138.69;5068122;28;20037;-70
2022/07/02 00:44:58;;;;;;;7.63;4.85;;;;;;;11.94;96.94;102138.72;5057908;28;20098;-70
2022/07/02 00:47:25;;;;;;;6.97;4.85;;;;;;;11.90;96.74;102138.75;5068439;28;20028;-70
2022/07/02 00:49:51;;;;;;;9.63;5.00;;;;;;;11.85;97.33;102132.72;5072020;28;20016;-70
2022/07/02 00:52:16;;;;;;;6.15;4.47;;;;;;;11.81;97.52;102130.97;5070454;28;20027;-70
2022/07/02 00:54:42;;;;;;;7.70;4.43;;;;;;;11.77;97.65;102129.25;5071461;28;20028;-70
2022/07/02 00:57:07;;;;;;;5.40;4.28;;;;;;;11.67;97.70;102120.59;5069737;28;20044;-70
2022/07/02 00:59:33;;;;;;;8.27;4.43;;;;;;;11.71;98.18;102127.56;5072328;28;20024;-70
2022/07/02 01:01:59;;;;;;;8.27;4.80;;;;;;;11.73;98.37;102128.41;5065745;28;20033;-70
2022/07/02 01:04:29;;;;;;;7.72;4.80;;;;;;;11.70;98.21;102131.91;5072592;28;20020;-70
2022/07/02 01:07:04;;;;;;;6.50;4.50;;;;;;;11.66;98.09;102126.72;5071694;28;20033;-70
2022/07/02 01:12:22;;;;;;;5.75;4.10;;;;;;;11.62;98.34;102122.41;5071348;28;20066;-70
2022/07/02 01:14:48;;;;;;;7.30;4.10;;;;;;;11.60;98.17;102127.63;5068175;28;20028;-70
2022/07/02 01:17:13;;;;;;;5.03;3.63;;;;;;;11.57;98.50;102111.13;5070439;28;20055;-70
2022/07/02 01:19:39;;;;;;;9.60;4.13;;;;;;;11.57;98.65;102113.72;5071853;28;20040;-70
2022/07/02 01:22:18;;;;;;;6.28;4.18;;;;;;;11.56;98.63;102109.38;5066583;28;20032;-70
2022/07/02 01:24:45;;;;;;;8.00;4.50;;;;;;;11.52;99.50;102121.59;5066735;28;20024;-70
2022/07/02 01:27:11;;;;;;;4.88;3.90;;;;;;;11.50;99.77;102118.13;5060694;28;20492;-70
2022/07/02 01:29:37;;;;;;;8.07;4.15;;;;;;;11.49;98.96;102114.66;5063943;28;20040;-70
2022/07/02 01:32:04;;;;;;;5.70;4.07;;;;;;;11.46;99.61;102119.03;5063951;28;20852;-70
2022/07/02 01:34:35;;;;;;;8.70;3.92;;;;;;;11.47;99.08;102115.53;5067329;28;20025;-70
2022/07/02 01:37:00;;;;;;;7.50;4.32;;;;;;;11.42;99.28;102120.81;5071168;28;20070;-70
2022/07/02 01:39:26;;;;;;;8.38;4.30;;;;;;;11.39;99.74;102118.22;5057687;28;20603;-70
2022/07/02 01:41:52;;;;;;;5.75;4.32;;;;;;;11.35;99.89;102124.34;5069375;28;20036;-70
2022/07/02 01:44:17;;;;;;;6.43;4.50;;;;;;;11.33;99.65;102123.47;5071140;28;20530;-70
2022/07/02 01:46:44;;;;;;;8.10;4.50;;;;;;;11.28;100.00;102117.41;5071362;28;20039;-70
2022/07/02 01:49:10;;;;;;;5.15;4.25;;;;;;;11.29;100.00;102119.16;5071550;28;20024;-70
2022/07/02 01:51:35;;;;;;;6.15;4.57;;;;;;;11.34;100.00;102130.41;5069426;28;20043;-70
2022/07/02 01:54:00;;;;;;;6.80;4.35;;;;;;;11.30;100.00;102126.09;5069789;28;20040;-70
2022/07/02 01:56:26;;;;;;;7.13;4.15;;;;;;;11.31;100.00;102125.22;5057112;28;20077;-70
2022/07/02 01:58:51;;;;;;;6.78;4.03;;;;;;;11.24;100.00;102124.38;5070571;28;20056;-70
2022/07/02 02:01:16;;;;;;;6.30;4.10;;;;;;;11.24;100.00;102119.16;5071814;28;20040;-70
2022/07/02 02:03:42;;;;;;;7.38;4.20;;;;;;;11.22;100.00;102120.94;5056997;28;20345;-70
2022/07/02 02:06:07;;;;;;;6.80;4.07;;;;;;;11.25;100.00;102114.81;5070788;28;20487;-70
2022/07/02 02:08:32;;;;;;;5.95;4.32;;;;;;;11.24;100.00;102119.16;5070968;28;20041;-70
2022/07/02 02:10:57;;;;;;;9.15;4.47;;;;;;;11.25;100.00;102110.47;5071369;28;20025;-70
2022/07/02 02:13:23;;;;;;;9.55;3.85;;;;;;;11.25;100.00;102114.81;5069325;28;20090;-70
2022/07/02 02:15:48;;;;;;;5.45;4.13;;;;;;;11.19;100.00;102104.41;5058139;28;20084;-70
2022/07/02 02:18:14;;;;;;;8.60;4.40;;;;;;;11.27;100.00;102117.41;5065237;28;20029;-70
2022/07/02 02:20:39;;;;;;;6.20;4.15;;;;;;;11.26;100.00;102119.16;5070435;28;20028;-70
2022/07/02 02:23:05;;;;;;;5.95;3.75;;;;;;;11.29;100.00;102110.44;5069092;28;20028;-70
2022/07/02 02:25:31;;;;;;;7.55;4.32;;;;;;;11.29;100.00;102107.84;5070464;28;20056;-70
2022/07/02 02:27:57;;;;;;;7.65;4.57;;;;;;;11.38;100.00;102116.50;5070716;28;20028;-70
2022/07/02 02:30:23;;;;;;;7.07;4.32;;;;;;;11.44;100.00;102116.44;5057850;28;20064;-70
2022/07/02 02:32:48;;;;;;;9.18;4.40;;;;;;;11.51;100.00;102116.38;5064655;28;20040;-70
2022/07/02 02:35:13;;;;;;;7.05;4.28;;;;;;;11.63;100.00;102117.16;5072527;28;20484;-70
2022/07/02 02:37:39;;;;;;;6.80;4.70;;;;;;;11.71;100.00;102110.16;5074572;28;20070;-70
2022/07/02 02:40:05;;;;;;;5.95;4.63;;;;;;;11.86;100.00;102124.84;5074192;28;20020;-70
2022/07/02 02:42:30;;;;;;;6.70;4.03;;;;;;;11.88;100.00;102096.97;5072665;28;20024;-70
2022/07/02 02:44:56;;;;;;;9.25;4.60;;;;;;;12.01;100.00;102118.63;5074411;28;20025;-70
2022/07/02 02:47:22;;;;;;;7.18;4.40;;;;;;;12.11;100.00;102119.41;5072960;28;20039;-70
2022/07/02 02:49:47;;;;;;;8.57;4.93;;;;;;;12.15;100.00;102121.13;5074055;28;20017;-70
2022/07/02 02:52:13;;;;;;;8.32;4.68;;;;;;;12.18;100.00;102115.84;5072633;28;20082;-70
2022/07/02 02:54:38;;;;;;;8.65;4.80;;;;;;;12.22;100.00;102121.91;5073645;28;20024;-70
2022/07/02 02:57:04;;;;;;;5.43;4.30;;;;;;;12.21;100.00;102117.59;5074236;28;20052;-70
2022/07/02 02:59:29;;;;;;;8.15;4.47;;;;;;;12.18;100.00;102113.25;5074592;28;20048;-70
2022/07/02 03:01:54;;;;;;;8.20;4.28;;;;;;;12.18;99.63;102121.94;5072156;28;20103;-70
2022/07/02 03:04:21;;;;;;;8.82;4.35;;;;;;;12.11;100.00;102115.06;5074545;28;20135;-70
2022/07/02 03:06:46;;;;;;;7.88;4.88;;;;;;;12.03;100.00;102118.59;5071027;28;20467;-70
2022/07/02 03:09:11;;;;;;;8.90;4.40;;;;;;;11.94;100.00;102127.41;5071620;28;20047;-70
2022/07/02 03:11:36;;;;;;;8.65;4.35;;;;;;;11.84;100.00;102121.41;5074197;28;20020;-70
2022/07/02 03:14:02;;;;;;;10.32;4.55;;;;;;;11.77;100.00;102124.91;5064558;28;20472;-70
2022/07/02 03:16:27;;;;;;;9.93;4.68;;;;;;;11.70;100.00;102124.06;5073494;28;20063;-70
2022/07/02 03:18:52;;;;;;;7.88;4.32;;;;;;;11.70;100.00;102136.25;5073690;28;20028;-70
2022/07/02 03:21:17;;;;;;;9.48;4.90;;;;;;;11.65;100.00;102138.06;5074539;28;20103;-70
2022/07/02 03:23:43;;;;;;;10.25;4.55;;;;;;;11.63;100.00;102131.97;5070811;28;20028;-70
2022/07/02 03:26:08;;;;;;;8.57;4.57;;;;;;;11.69;100.00;102137.16;5072454;28;20046;-70
2022/07/02 03:28:33;;;;;;;7.18;4.60;;;;;;;11.67;100.00;102136.28;5073547;28;20439;-70
2022/07/02 03:30:59;;;;;;;10.80;4.45;;;;;;;11.64;100.00;102141.53;5058959;28;20040;-70
2022/07/02 03:33:25;;;;;;;9.00;4.30;;;;;;;11.66;100.00;102147.63;5070076;28;20024;-70
2022/07/02 03:35:50;;;;;;;8.93;3.95;;;;;;;11.69;100.00;102145.00;5071765;28;20040;-70
2022/07/02 03:38:15;;;;;;;7.78;4.43;;;;;;;11.77;100.00;102151.03;5072274;28;20027;-70
2022/07/02 03:40:41;;;;;;;8.88;4.10;;;;;;;11.81;100.00;102144.03;5072356;28;20036;-70
2022/07/02 03:43:06;;;;;;;5.93;4.10;;;;;;;11.88;100.00;102150.97;5070670;28;20020;-70
2022/07/02 03:45:31;;;;;;;8.18;4.32;;;;;;;11.88;100.00;102157.06;5072583;28;20032;-70
2022/07/02 03:47:57;;;;;;;5.88;3.75;;;;;;;11.84;100.00;102146.63;5072210;28;20036;-70
2022/07/02 03:50:22;;;;;;;9.85;4.43;;;;;;;11.81;100.00;102154.50;5065341;28;20480;-70
2022/07/02 03:52:47;;;;;;;8.05;4.28;;;;;;;11.82;100.00;102159.69;5070930;28;20032;-70
2022/07/02 03:55:13;;;;;;;7.03;3.72;;;;;;;11.88;100.00;102157.06;5073029;28;20457;-70
2022/07/02 03:57:38;;;;;;;7.95;4.15;;;;;;;11.91;100.00;102145.72;5071396;28;20049;-70
2022/07/02 04:00:05;;;;;;;6.30;3.70;;;;;;;12.05;100.00;102156.94;5073252;28;20029;-70
2022/07/02 04:02:30;;;;;;;12.63;4.22;;;;;;;12.11;99.67;102158.63;5072262;28;20448;-70
2022/07/02 04:04:56;;;;;;;7.53;4.60;;;;;;;12.16;100.00;102154.22;5068267;28;20052;-70
2022/07/02 04:07:21;;;;;;;7.25;4.10;;;;;;;12.19;99.81;102159.41;5073661;28;20016;-70
2022/07/02 04:09:46;;;;;;;8.70;4.47;;;;;;;12.16;98.22;102160.31;5072676;28;20419;-70
2022/07/02 04:12:12;;;;;;;7.28;4.38;;;;;;;12.14;98.31;102161.22;5071491;28;20012;-70
2022/07/02 04:14:37;;;;;;;7.47;3.65;;;;;;;12.10;98.96;102167.34;5072171;28;20472;-70
2022/07/02 04:17:03;;;;;;;11.20;4.90;;;;;;;12.02;99.60;102159.56;5072812;28;20066;-70
2022/07/02 04:19:28;;;;;;;7.30;4.47;;;;;;;11.92;99.96;102153.53;5072626;28;20487;-70
2022/07/02 04:21:54;;;;;;;6.97;4.47;;;;;;;11.96;99.99;102159.63;5070987;28;20093;-70
2022/07/02 04:24:19;;;;;;;7.35;4.40;;;;;;;12.00;99.31;102158.72;5058864;28;20058;-70
2022/07/02 04:26:45;;;;;;;8.57;4.85;;;;;;;12.08;98.43;102161.28;5067036;28;20024;-70
2022/07/02 04:29:10;;;;;;;5.40;3.88;;;;;;;12.10;98.81;102151.69;5067389;28;20016;-70
2022/07/02 04:31:35;;;;;;;8.73;4.30;;;;;;;12.19;98.70;102157.66;5058978;28;20023;-70
2022/07/02 04:34:01;;;;;;;6.70;4.50;;;;;;;12.30;99.71;102156.72;5065813;28;20029;-70
2022/07/02 04:36:26;;;;;;;8.75;4.90;;;;;;;12.35;99.21;102149.69;5059117;28;20131;-70
2022/07/02 04:38:51;;;;;;;8.43;4.57;;;;;;;12.46;98.37;102163.53;5072685;28;20083;-70
2022/07/02 04:41:17;;;;;;;8.20;4.35;;;;;;;12.52;97.63;102159.97;5071967;28;20017;-70
2022/07/02 04:43:42;;;;;;;7.43;4.90;;;;;;;12.61;98.01;102159.88;5064284;28;20457;-70
2022/07/02 04:46:07;;;;;;;7.13;4.05;;;;;;;12.73;98.68;102154.50;5070660;28;20024;-70
2022/07/02 04:48:32;;;;;;;6.32;4.65;;;;;;;12.82;97.85;102161.41;5072239;28;20476;-70
2022/07/02 04:50:58;;;;;;;9.55;4.20;;;;;;;12.81;98.34;102155.25;5072267;28;20071;-70
2022/07/02 04:53:23;;;;;;;8.18;4.28;;;;;;;12.81;98.52;102155.25;5070817;28;20395;-70
2022/07/02 04:55:49;;;;;;;7.25;4.88;;;;;;;12.75;97.61;102163.22;5069197;28;20118;-69
2022/07/02 04:58:14;;;;;;;6.75;4.72;;;;;;;12.70;97.58;102159.78;5072245;28;20029;-70
2022/07/02 05:00:39;;;;;;;8.00;4.80;;;;;;;12.73;97.24;102164.09;5071321;28;20039;-70
2022/07/02 05:03:05;;;;;;;12.50;4.70;;;;;;;12.77;97.94;102166.66;5069554;28;20023;-70
2022/07/02 05:05:30;;;;;;;6.97;4.18;;;;;;;12.83;96.54;102171.81;5070123;28;20082;-70
2022/07/02 05:07:55;;;;;;;6.28;4.72;;;;;;;12.89;96.61;102169.13;5070873;28;20033;-70
2022/07/02 05:10:21;;;;;;;7.60;4.10;;;;;;;12.97;94.27;102160.31;5072425;28;20025;-70
2022/07/02 05:12:46;;;;;;;6.53;4.53;;;;;;;13.03;96.28;102157.63;5069359;28;20465;-70
2022/07/02 05:15:12;;;;;;;9.38;4.80;;;;;;;13.00;96.10;102162.91;5070169;28;20058;-70
2022/07/02 05:17:37;;;;;;;6.40;4.38;;;;;;;13.05;96.40;102158.50;5071741;28;20048;-70
2022/07/02 05:20:03;;;;;;;8.55;4.13;;;;;;;13.07;96.14;102156.69;5070457;28;20784;-70
2022/07/02 05:22:28;;;;;;;11.15;4.43;;;;;;;13.06;96.05;102155.84;5071553;28;20031;-70
2022/07/02 05:24:53;;;;;;;8.18;4.00;;;;;;;13.06;94.75;102160.22;5070506;28;20024;-70
2022/07/02 05:27:18;;;;;;;6.10;4.28;;;;;;;13.11;92.71;102161.00;5058132;28;20032;-70
2022/07/02 05:29:44;;;;;;;8.43;3.90;;;;;;;13.08;94.16;102143.59;5064609;28;20078;-70
2022/07/02 05:32:09;;;;;;;6.78;4.00;;;;;;;13.18;94.81;102143.47;5071153;28;20376;-70
2022/07/02 05:34:34;;;;;;;7.35;4.10;;;;;;;13.31;95.93;102166.03;5070684;28;20031;-70
2022/07/02 05:37:00;;;;;;;7.78;3.63;;;;;;;13.33;94.13;102162.47;5065685;28;20086;-70
2022/07/02 05:39:25;;;;;;;8.45;3.85;;;;;;;13.41;95.26;102164.16;5068485;28;20023;-70
2022/07/02 05:41:50;;;;;;;8.30;3.40;;;;;;;13.48;93.17;102173.66;5071358;28;20484;-70
2022/07/02 05:44:16;;;;;;;6.22;2.95;;;;;;;13.54;91.94;102177.06;5063417;28;20031;-70
2022/07/02 05:46:41;;;;;;;5.93;3.30;;;;;;;13.59;90.78;102175.22;5070619;28;20017;-70
2022/07/02 05:49:06;;;;;;;6.60;3.20;;;;;;;13.65;90.22;102166.41;5071636;28;20099;-70
2022/07/02 05:51:31;;;;;;;4.80;3.10;;;;;;;13.72;92.33;102169.78;5070880;28;20024;-70
2022/07/02 05:53:57;;;;;;;6.78;3.20;;;;;;;13.77;92.39;102165.34;5063404;28;20031;-70
2022/07/02 05:56:22;;;;;;;6.88;3.30;;;;;;;13.89;88.25;102166.91;5068305;28;20032;-70
2022/07/02 05:58:47;;;;;;;4.35;3.00;;;;;;;13.97;89.67;102173.75;5070950;28;20035;-70
2022/07/02 06:01:13;;;;;;;7.38;2.72;;;;;;;14.00;89.63;102172.84;5070215;28;20470;-70
2022/07/02 06:03:38;;;;;;;4.72;2.63;;;;;;;14.03;86.16;102160.56;5069715;28;20035;-70
2022/07/02 06:08:47;;;;;;;9.43;2.70;;;;;;;14.22;83.84;102165.47;5058180;28;20057;-70
2022/07/02 06:11:12;;;;;;;5.00;2.60;;;;;;;14.31;82.35;102164.44;5068016;28;20028;-70
2022/07/02 06:13:38;;;;;;;5.25;2.30;;;;;;;14.42;82.20;102167.72;5071614;28;20036;-70
2022/07/02 06:16:03;;;;;;;3.90;2.20;;;;;;;14.52;84.29;102174.59;5064334;28;20031;-70
2022/07/02 06:18:29;;;;;;;4.80;2.40;;;;;;;14.64;83.16;102176.97;5074800;28;20024;-71
2022/07/02 06:20:54;;;;;;;4.80;2.40;;;;;;;14.75;83.76;102177.63;5074891;28;20029;-70
2022/07/02 06:23:21;;;;;;;6.65;2.20;;;;;;;15.06;80.85;102178.78;5075378;28;20107;-70
2022/07/02 06:25:47;;;;;;;6.55;2.60;;;;;;;15.37;81.37;102173.75;5070455;28;20047;-70
2022/07/02 06:28:13;;;;;;;5.85;2.30;;;;;;;15.72;78.35;102166.81;5067753;28;20033;-70
2022/07/02 06:30:38;;;;;;;4.75;1.83;;;;;;;15.94;74.59;102170.66;5060932;28;20025;-70
2022/07/02 06:33:03;;;;;;;3.40;1.98;;;;;;;15.91;79.13;102170.72;5074098;28;20023;-70
2022/07/02 06:35:29;;;;;;;7.57;2.08;;;;;;;15.81;77.07;102171.84;5061746;28;20124;-70
2022/07/02 06:37:54;;;;;;;4.45;1.90;;;;;;;15.56;78.43;102167.13;5073771;28;20035;-70
2022/07/02 06:40:19;;;;;;;4.82;2.00;;;;;;;15.43;75.77;102178.81;5071055;28;20032;-70
2022/07/02 06:42:45;;;;;;;10.40;2.80;;;;;;;15.36;74.17;102177.25;5074242;28;20089;-70
2022/07/02 06:45:10;;;;;;;3.75;1.88;;;;;;;15.39;77.38;102172.78;5073576;28;20024;-70
2022/07/02 06:47:39;;;;;;;2.80;1.88;;;;;;;15.61;76.44;102172.31;5063777;28;20063;-70
2022/07/02 06:50:06;;;;;;;3.75;1.73;;;;;;;15.72;74.96;102170.31;5071514;28;20025;-70
2022/07/02 06:52:31;;;;;;;3.83;2.00;;;;;;;15.75;76.26;102169.38;5073979;28;20562;-70
2022/07/02 06:54:57;;;;;;;4.85;1.80;;;;;;;15.75;72.82;102169.38;5072232;28;20091;-70
2022/07/02 06:57:23;;;;;;;3.65;1.80;;;;;;;15.71;73.96;102168.59;5073697;28;20396;-70
2022/07/02 06:59:48;;;;;;;4.93;1.67;;;;;;;15.71;73.47;102175.63;5070564;28;20021;-70
2022/07/02 07:02:13;;;;;;;2.38;1.20;;;;;;;15.78;70.17;102167.53;5074605;28;20445;-70
2022/07/02 07:04:39;;;;;;;2.95;1.10;;;;;;;15.87;69.07;102172.56;5072689;28;20028;-71
2022/07/02 07:07:07;;;;;;;4.63;1.20;;;;;;;15.99;68.33;102168.78;5071768;28;20051;-70
2022/07/02 07:09:34;;;;;;;3.35;1.30;;;;;;;16.03;67.45;102175.69;5074018;28;20484;-71
2022/07/02 07:12:00;;;;;;;2.60;1.38;;;;;;;16.12;66.06;102179.84;5073884;28;20017;-70
2022/07/02 07:14:25;;;;;;;2.45;1.00;;;;;;;16.21;66.41;102173.50;5072078;28;20064;-70
2022/07/02 07:16:51;;;;;;;3.85;1.40;;;;;;;16.23;69.00;102164.66;5073970;28;20043;-71
2022/07/02 07:19:17;;;;;;;6.35;1.60;;;;;;;16.27;69.72;102171.56;5073868;28;20020;-70
2022/07/02 07:21:42;;;;;;;3.28;1.30;;;;;;;16.39;67.57;102173.03;5073422;28;20021;-70
2022/07/02 07:24:09;;;;;;;3.45;1.38;;;;;;;16.45;69.81;102178.13;5074333;28;20078;-71
2022/07/02 07:26:36;;;;;;;3.92;1.60;;;;;;;16.48;69.28;102170.16;5070978;28;20468;-71
2022/07/02 07:29:01;;;;;;;3.65;1.60;;;;;;;16.59;64.88;102175.97;5069031;28;20086;-70
2022/07/02 07:31:28;;;;;;;4.05;1.45;;;;;;;16.63;63.71;102177.59;5064530;28;20024;-77
2022/07/02 07:33:57;;;;;;;5.68;1.20;;;;;;;16.69;66.37;102175.72;5063254;28;20047;-77
2022/07/02 07:36:24;;;;;;;2.20;1.27;;;;;;;16.79;65.42;102177.22;5073465;28;20021;-76
2022/07/02 07:38:51;;;;;;;3.80;1.30;;;;;;;16.90;65.77;102177.75;5073531;28;20025;-76
2022/07/02 07:41:20;;;;;;;2.67;1.58;;;;;;;16.98;65.55;102173.16;5072883;28;20025;-77
2022/07/02 07:43:46;;;;;;;3.70;1.83;;;;;;;17.07;61.26;102180.78;5069286;28;20021;-77
2022/07/02 07:46:11;;;;;;;3.80;1.50;;;;;;;17.17;66.04;102177.91;5071737;28;20503;-76
2022/07/02 07:48:37;;;;;;;4.22;1.90;;;;;;;17.27;65.67;102179.34;5072743;28;20123;-76
2022/07/02 07:51:02;;;;;;;1.88;1.40;;;;;;;17.33;66.90;102179.16;5068159;28;20025;-76
2022/07/02 07:53:28;;;;;;;4.63;1.60;;;;;;;17.40;65.07;102174.56;5065905;28;20473;-77
2022/07/02 07:55:54;;;;;;;3.30;1.33;;;;;;;17.53;62.80;102171.50;5055970;28;20020;-78
2022/07/02 07:58:19;;;;;;;2.85;1.20;;;;;;;17.60;62.54;102160.75;5069252;28;20362;-77
2022/07/02 08:00:48;;;;;;;2.65;1.33;;;;;;;17.63;64.98;102165.94;5072876;28;20385;-76
2022/07/02 08:03:17;;;;;;;3.08;1.25;;;;;;;17.66;61.23;102171.09;5072783;28;20032;-77
2022/07/02 08:05:46;;;;;;;5.22;1.10;;;;;;;17.68;62.11;102172.75;5073213;28;20016;-77
2022/07/02 08:08:12;;;;;;;4.40;1.30;;;;;;;17.81;59.91;102169.75;5073133;28;20028;-77
2022/07/02 08:10:37;;;;;;;3.47;1.10;;;;;;;17.82;60.27;102153.00;5070834;28;20024;-76
2022/07/02 08:13:02;;;;;;;1.55;1.00;;;;;;;17.96;60.45;102164.84;5071845;28;20108;-76
2022/07/02 08:15:27;;;;;;;5.35;1.27;;;;;;;18.11;61.90;102159.97;5072666;28;20070;-76
2022/07/02 08:17:53;;;;;;;2.95;0.98;;;;;;;18.24;62.08;102154.19;5065591;28;20380;-76
2022/07/02 08:20:19;;;;;;;2.85;1.15;;;;;;;18.30;58.13;102154.91;5071416;28;20354;-77
2022/07/02 08:22:46;;;;;;;2.97;1.23;;;;;;;18.34;56.85;102160.03;5072411;28;20033;-77
2022/07/02 08:25:13;;;;;;;5.25;1.58;;;;;;;18.38;58.38;102145.81;5071958;28;20159;-77
2022/07/02 08:27:38;;;;;;;1.70;1.02;;;;;;;18.45;59.64;102152.59;5072450;28;20074;-78
2022/07/02 08:30:05;;;;;;;2.75;1.10;;;;;;;18.53;57.87;102148.81;5060916;28;20113;-78
2022/07/02 08:32:31;;;;;;;2.08;1.40;;;;;;;18.58;59.40;102154.81;5064152;28;20635;-78
2022/07/02 08:34:57;;;;;;;8.00;1.38;;;;;;;18.64;57.23;102146.66;5070201;28;20029;-78
2022/07/02 08:37:23;;;;;;;3.92;1.30;;;;;;;18.66;57.00;102142.16;5070586;28;20107;-78
2022/07/02 08:39:48;;;;;;;2.75;1.20;;;;;;;18.87;58.93;102151.13;5069157;28;20127;-78
2022/07/02 08:42:24;;;;;;;5.28;1.25;;;;;;;18.98;57.94;102150.72;5072773;28;20020;-78
2022/07/02 08:44:52;;;;;;;4.70;1.33;;;;;;;19.06;58.61;102148.63;5071305;28;20396;-78
2022/07/02 08:47:18;;;;;;;3.05;1.30;;;;;;;19.13;59.28;102144.84;5071716;28;20086;-76
2022/07/02 08:49:46;;;;;;;2.92;1.30;;;;;;;19.24;59.33;102153.22;5066764;28;20032;-77
2022/07/02 08:52:16;;;;;;;8.68;1.70;;;;;;;19.29;58.29;102145.97;5072084;28;20388;-75
2022/07/02 08:54:42;;;;;;;4.25;1.40;;;;;;;19.23;56.91;102134.75;5072273;28;20029;-76
2022/07/02 08:57:11;;;;;;;5.38;1.40;;;;;;;19.37;58.40;102143.88;5072155;28;20040;-76
2022/07/02 08:59:37;;;;;;;2.63;1.52;;;;;;;19.44;56.97;102143.63;5071468;28;20016;-77
2022/07/02 09:02:02;;;;;;;4.53;1.20;;;;;;;19.56;57.88;102132.56;5071223;28;20038;-77
2022/07/02 09:04:28;;;;;;;2.50;1.27;;;;;;;19.62;58.14;102133.19;5060581;28;20491;-76
2022/07/02 09:06:57;;;;;;;3.92;1.30;;;;;;;19.74;56.33;102142.41;5065768;28;20440;-77
2022/07/02 09:09:26;;;;;;;4.82;1.25;;;;;;;19.81;54.87;102143.03;5063945;28;20063;-76
2022/07/02 09:11:51;;;;;;;3.30;1.40;;;;;;;19.92;57.80;102139.94;5068935;28;20021;-77
2022/07/02 09:14:17;;;;;;;3.50;1.48;;;;;;;20.01;56.37;102124.53;5071233;28;20032;-75
2022/07/02 09:16:43;;;;;;;4.70;1.30;;;;;;;20.12;59.48;102132.00;5071722;28;20017;-75
2022/07/02 09:19:08;;;;;;;4.13;1.30;;;;;;;20.28;55.91;102117.19;5072045;28;20043;-76
2022/07/02 09:21:47;;;;;;;4.32;1.33;;;;;;;20.34;55.54;102114.25;5070280;28;20526;-76
2022/07/02 09:24:13;;;;;;;3.30;1.65;;;;;;;20.37;56.00;102109.75;5072362;28;20020;-77
2022/07/02 09:26:38;;;;;;;2.40;1.20;;;;;;;20.54;56.60;102117.84;5071740;28;20426;-77
2022/07/02 09:29:04;;;;;;;3.25;1.65;;;;;;;20.61;53.54;102102.53;5068284;28;20036;-77
2022/07/02 09:31:47;;;;;;;4.25;1.80;;;;;;;20.74;58.90;102108.97;5059967;28;20536;-76
2022/07/02 09:34:23;;;;;;;4.78;1.30;;;;;;;20.80;57.14;102100.75;5070887;28;20036;-77
2022/07/02 09:36:49;;;;;;;4.90;1.33;;;;;;;20.78;51.08;102099.94;5070165;28;20033;-76
2022/07/02 09:39:14;;;;;;;3.35;1.30;;;;;;;20.84;52.67;102085.56;5070777;28;20028;-77
2022/07/02 09:41:43;;;;;;;5.97;1.70;;;;;;;20.93;54.16;102093.09;5069863;28;20486;-77
2022/07/02 09:44:11;;;;;;;2.90;1.20;;;;;;;20.98;53.41;102085.75;5071271;28;20024;-77
2022/07/02 09:46:36;;;;;;;3.20;1.63;;;;;;;21.02;55.85;102087.31;5061970;28;20092;-77
2022/07/02 09:49:09;;;;;;;4.68;1.63;;;;;;;21.18;54.88;102082.16;5065375;28;20411;-77
2022/07/02 09:52:13;;;;;;;3.88;1.25;;;;;;;21.27;54.74;102084.38;5069578;28;20029;-77
2022/07/02 09:54:38;;;;;;;3.25;1.27;;;;;;;21.34;53.04;102087.56;5053011;28;20036;-77
2022/07/02 09:57:05;;;;;;;3.25;1.52;;;;;;;21.37;51.78;102082.16;5070574;28;20198;-77
2022/07/02 09:59:35;;;;;;;4.70;1.63;;;;;;;21.54;53.63;102078.66;5070883;28;20025;-77
2022/07/02 10:02:01;;;;;;;3.35;1.27;;;;;;;21.64;52.16;102075.47;5071415;28;20028;-77
2022/07/02 10:04:33;;;;;;;3.50;1.27;;;;;;;22.00;52.47;102076.31;5065384;28;20028;-76
2022/07/02 10:07:00;;;;;;;3.90;1.37;;;;;;;22.37;51.06;102078.78;5069187;28;20078;-77
2022/07/02 10:09:27;;;;;;;2.58;1.65;;;;;;;22.68;48.06;102058.50;5070004;28;20040;-81
2022/07/02 10:11:53;;;;;;;4.28;1.42;;;;;;;22.98;50.59;102069.25;5059558;28;20354;-77
2022/07/02 10:14:21;;;;;;;2.47;1.40;;;;;;;23.23;50.17;102067.88;5071692;28;20035;-78
2022/07/02 10:16:47;;;;;;;2.75;1.40;;;;;;;23.06;49.62;102061.72;5068110;28;20017;-77
2022/07/02 10:19:12;;;;;;;3.10;1.30;;;;;;;22.84;48.81;102066.50;5071290;28;20452;-77
2022/07/02 10:21:42;;;;;;;5.35;2.03;;;;;;;22.69;50.37;102065.53;5067628;28;20036;-77
2022/07/02 10:24:09;;;;;;;3.78;1.50;;;;;;;23.07;44.88;102059.91;5068240;28;20534;-78
2022/07/02 10:26:34;;;;;;;6.07;1.60;;;;;;;23.39;47.38;102050.09;5059522;28;20119;-78
2022/07/02 10:29:03;;;;;;;4.68;1.23;;;;;;;23.55;45.91;102053.56;5069214;28;20537;-77
2022/07/02 10:31:35;;;;;;;2.50;1.27;;;;;;;23.96;49.10;102060.88;5065989;28;20484;-77
2022/07/02 10:34:03;;;;;;;5.40;1.45;;;;;;;24.12;45.99;102062.63;5065144;28;20033;-78
2022/07/02 10:36:29;;;;;;;3.90;1.17;;;;;;;23.54;49.00;102054.53;5054469;28;20045;-76
2022/07/02 10:39:00;;;;;;;3.17;0.90;;;;;;;23.34;44.97;102046.81;5055670;28;20099;-77
2022/07/02 10:41:28;;;;;;;1.45;1.00;;;;;;;23.53;45.38;102057.25;5057133;28;20086;-76
2022/07/02 10:43:56;;;;;;;2.65;1.10;;;;;;;23.79;46.85;102053.06;5051588;28;20029;-76
2022/07/02 10:46:24;;;;;;;1.58;0.95;;;;;;;23.77;40.91;102054.97;5050105;28;20032;-76
2022/07/02 10:48:58;;;;;;;2.13;1.08;;;;;;;23.80;44.90;102050.31;5052499;28;20067;-76
2022/07/02 10:51:28;;;;;;;5.20;1.27;;;;;;;23.98;45.03;102053.69;5059178;28;20025;-76
2022/07/02 10:53:58;;;;;;;1.20;0.90;;;;;;;24.31;43.49;102057.88;5050723;28;20384;-76
2022/07/02 10:56:23;;;;;;;2.97;0.90;;;;;;;24.73;43.42;102040.16;5057218;28;20045;-77
2022/07/02 10:58:49;;;;;;;3.10;1.10;;;;;;;24.94;43.98;102033.41;5067670;28;20039;-76
2022/07/02 11:01:17;;;;;;;3.85;1.02;;;;;;;24.99;41.23;102031.31;5058224;28;20033;-76
2022/07/02 11:03:57;;;;;;;1.73;0.70;;;;;;;24.95;43.41;102037.81;5054622;28;20029;-77
2022/07/02 11:06:28;;;;;;;3.22;1.00;;;;;;;25.08;42.06;102035.19;5058145;28;20472;-77
2022/07/02 11:09:01;;;;;;;3.70;1.20;;;;;;;25.00;43.36;102035.69;5059949;28;20123;-77
2022/07/02 11:11:47;;;;;;;4.15;1.10;;;;;;;25.05;40.95;102027.41;5059087;28;20017;-77
2022/07/02 11:14:18;;;;;;;1.60;0.80;;;;;;;25.11;39.98;102034.13;5061327;28;20083;-77
2022/07/02 11:16:46;;;;;;;2.50;0.95;;;;;;;25.05;41.13;102034.53;5059820;28;20047;-77
2022/07/02 11:19:12;;;;;;;3.95;0.85;;;;;;;24.65;42.37;102029.13;5057105;28;20029;-77
2022/07/02 11:21:38;;;;;;;2.70;0.90;;;;;;;24.65;41.38;102026.44;5053044;28;20086;-76
2022/07/02 11:24:04;;;;;;;2.90;0.80;;;;;;;25.02;41.02;102030.25;5053712;28;20052;-77
2022/07/02 11:26:29;;;;;;;3.70;1.00;;;;;;;25.28;45.66;102020.56;5054193;28;20507;-77